createdAt,value
2023-03-01T00:00:50.040Z,100874.22
2023-03-01T00:05:52.127Z,100898.13
2023-03-01T00:11:16.063Z,100868.38
2023-03-01T00:16:24.858Z,100883.16
2023-03-01T00:21:28.053Z,100871.56
2023-03-01T00:26:30.499Z,100880.38
2023-03-01T00:31:34.172Z,100861.63
2023-03-01T00:36:38.304Z,100874.75
2023-03-01T00:41:41.465Z,100874.34
2023-03-01T00:46:43.750Z,100860.09
2023-03-01T00:51:45.920Z,100869.25
2023-03-01T00:56:48.162Z,100849.31
2023-03-01T01:01:50.698Z,100832.25
2023-03-01T01:06:52.896Z,100831.00
2023-03-01T01:11:54.988Z,100819.66
2023-03-01T01:16:57.620Z,100812.38
2023-03-01T01:21:59.892Z,100805.63
2023-03-01T01:27:02.014Z,100833.44
2023-03-01T01:32:04.247Z,100839.78
2023-03-01T01:37:09.120Z,100832.91
2023-03-01T01:42:20.407Z,100837.66
2023-03-01T01:47:24.625Z,100828.25
2023-03-01T01:52:33.073Z,100832.28
2023-03-01T01:57:57.886Z,100821.66
2023-03-01T02:03:05.238Z,100821.81
2023-03-01T02:08:09.723Z,100808.59
2023-03-01T02:13:12.813Z,100813.28
2023-03-01T02:18:18.780Z,100802.91
2023-03-01T02:23:21.458Z,100824.25
2023-03-01T02:28:35.009Z,100806.34
2023-03-01T02:33:40.412Z,100815.41
2023-03-01T02:38:44.066Z,100806.50
2023-03-01T02:43:46.830Z,100812.19
2023-03-01T02:48:59.871Z,100789.97
2023-03-01T02:54:10.693Z,100819.66
2023-03-01T02:59:13.707Z,100814.88
2023-03-01T03:04:19.531Z,100787.66
2023-03-01T03:09:21.873Z,100804.91
2023-03-01T03:14:24.888Z,100779.38
2023-03-01T03:19:27.205Z,100797.66
2023-03-01T03:24:30.073Z,100793.72
2023-03-01T03:29:32.447Z,100794.72
2023-03-01T03:34:34.679Z,100795.16
2023-03-01T03:39:36.838Z,100793.25
2023-03-01T03:44:39.073Z,100790.69
2023-03-01T03:49:41.229Z,100805.63
2023-03-01T03:54:43.424Z,100823.50
2023-03-01T03:59:45.508Z,100803.72
2023-03-01T04:04:47.617Z,100818.91
2023-03-01T04:09:49.858Z,100826.84
2023-03-01T04:14:52.199Z,100844.13
2023-03-01T04:19:54.374Z,100855.09
2023-03-01T04:24:56.615Z,100856.97
2023-03-01T04:29:58.712Z,100833.47
2023-03-01T04:35:01.638Z,100837.44
2023-03-01T04:40:17.518Z,100816.69
2023-03-01T04:45:20.150Z,100836.19
2023-03-01T04:50:23.013Z,100830.44
2023-03-01T04:55:27.155Z,100840.25
2023-03-01T05:00:29.370Z,100842.06
2023-03-01T05:05:38.001Z,100845.59
2023-03-01T05:10:40.275Z,100838.09
2023-03-01T05:15:42.579Z,100853.53
2023-03-01T05:20:46.053Z,100834.97
2023-03-01T05:25:48.198Z,100854.91
2023-03-01T05:30:53.052Z,100818.69
2023-03-01T05:35:55.542Z,100853.72
2023-03-01T05:40:57.747Z,100857.13
2023-03-01T05:46:01.240Z,100854.69
2023-03-01T05:51:03.520Z,100854.69
2023-03-01T05:56:06.004Z,100865.13
2023-03-01T06:01:13.287Z,100882.03
2023-03-01T06:06:15.432Z,100866.06
2023-03-01T06:11:17.863Z,100847.81
2023-03-01T06:16:20.093Z,100869.22
2023-03-01T06:21:22.245Z,100869.59
2023-03-01T06:26:24.426Z,100887.47
2023-03-01T06:31:26.622Z,100890.28
2023-03-01T06:36:29.066Z,100897.19
2023-03-01T06:41:31.348Z,100900.09
2023-03-01T06:46:33.902Z,100887.94
2023-03-01T06:51:39.234Z,100903.00
2023-03-01T06:56:41.404Z,100908.88
2023-03-01T07:01:43.871Z,100907.94
2023-03-01T07:06:45.951Z,100933.59
2023-03-01T07:11:48.392Z,100917.88
2023-03-01T07:16:50.569Z,100953.53
2023-03-01T07:21:52.788Z,100948.84
2023-03-01T07:26:55.076Z,100953.28
2023-03-01T07:31:57.252Z,100956.44
2023-03-01T07:36:59.404Z,100964.69
2023-03-01T07:42:01.507Z,100968.31
2023-03-01T07:47:05.545Z,100972.31
2023-03-01T07:52:07.704Z,100971.13
2023-03-01T07:57:09.878Z,100949.34
2023-03-01T08:02:12.801Z,100967.09
2023-03-01T08:07:15.120Z,100963.25
2023-03-01T08:12:20.126Z,100959.63
2023-03-01T08:17:22.535Z,100979.72
2023-03-01T08:22:24.882Z,100963.50
2023-03-01T08:27:27.140Z,100962.25
2023-03-01T08:32:29.417Z,100971.84
2023-03-01T08:37:34.185Z,100995.63
2023-03-01T08:42:36.425Z,100965.22
2023-03-01T08:47:38.805Z,100959.00
2023-03-01T08:52:41.066Z,100966.50
2023-03-01T08:57:43.232Z,100971.53
2023-03-01T09:02:45.467Z,100962.84
2023-03-01T09:07:47.668Z,100950.56
2023-03-01T09:12:49.861Z,100949.50
2023-03-01T09:17:53.182Z,100955.75
2023-03-01T09:22:55.479Z,100927.91
2023-03-01T09:27:57.745Z,100942.09
2023-03-01T09:32:59.948Z,100902.31
2023-03-01T09:38:02.510Z,100936.00
2023-03-01T09:43:17.219Z,100928.28
2023-03-01T09:48:26.008Z,100938.63
2023-03-01T09:53:36.562Z,100934.00
2023-03-01T09:58:44.916Z,100928.97
2023-03-01T10:04:05.700Z,100906.88
2023-03-01T10:09:14.038Z,100909.56
2023-03-01T10:14:37.000Z,100909.88
2023-03-01T10:19:43.250Z,100908.88
2023-03-01T10:24:47.955Z,100892.25
2023-03-01T10:30:23.114Z,100886.19
2023-03-01T10:35:29.084Z,100893.84
2023-03-01T10:40:31.953Z,100894.47
2023-03-01T10:45:40.327Z,100892.56
2023-03-01T10:50:48.296Z,100893.88
2023-03-01T10:55:59.958Z,100862.44
2023-03-01T11:01:03.944Z,100882.69
2023-03-01T11:06:22.198Z,100861.06
2023-03-01T11:11:32.827Z,100868.22
2023-03-01T11:16:38.815Z,100854.03
2023-03-01T11:21:48.828Z,100851.53
2023-03-01T11:26:55.986Z,100822.97
2023-03-01T11:32:03.092Z,100837.75
2023-03-01T11:37:27.615Z,100796.63
2023-03-01T11:42:45.506Z,100781.09
2023-03-01T11:48:01.304Z,100804.75
2023-03-01T11:53:33.098Z,100787.22
2023-03-01T11:58:49.320Z,100785.28
2023-03-01T12:04:07.278Z,100784.53
2023-03-01T12:09:34.177Z,100773.13
2023-03-01T12:15:08.005Z,100779.78
2023-03-01T12:20:37.554Z,100774.28
2023-03-01T12:26:05.032Z,100771.38
2023-03-01T12:31:35.509Z,100780.16
2023-03-01T12:36:45.491Z,100763.03
2023-03-01T12:42:13.896Z,100762.09
2023-03-01T12:47:50.972Z,100750.25
2023-03-01T12:52:56.995Z,100753.22
2023-03-01T12:58:01.886Z,100746.47
2023-03-01T13:03:15.734Z,100741.50
2023-03-01T13:08:43.944Z,100737.72
2023-03-01T13:13:47.922Z,100749.69
2023-03-01T13:18:50.189Z,100741.81
2023-03-01T13:23:52.496Z,100750.03
2023-03-01T13:28:57.299Z,100752.44
2023-03-01T13:34:08.629Z,100730.28
2023-03-01T13:39:34.528Z,100743.53
2023-03-01T13:44:40.107Z,100747.34
2023-03-01T13:49:53.330Z,100739.78
2023-03-01T13:54:57.151Z,100733.75
2023-03-01T13:59:59.576Z,100732.56
2023-03-01T14:05:03.138Z,100750.94
2023-03-01T14:10:07.434Z,100742.53
2023-03-01T14:15:28.847Z,100752.69
2023-03-01T14:20:36.801Z,100754.22
2023-03-01T14:25:40.265Z,100749.16
2023-03-01T14:30:51.081Z,100752.53
2023-03-01T14:35:54.549Z,100739.91
2023-03-01T14:41:00.739Z,100739.34
2023-03-01T14:46:03.060Z,100741.84
2023-03-01T14:51:07.238Z,100749.47
2023-03-01T14:56:16.515Z,100760.13
2023-03-01T15:01:21.222Z,100751.56
2023-03-01T15:06:25.081Z,100753.56
2023-03-01T15:11:32.875Z,100734.66
2023-03-01T15:16:40.461Z,100724.16
2023-03-01T15:21:48.329Z,100718.84
2023-03-01T15:26:58.905Z,100743.09
2023-03-01T15:32:26.198Z,100751.00
2023-03-01T15:37:49.897Z,100759.41
2023-03-01T15:42:53.028Z,100766.72
2023-03-01T15:48:03.344Z,100763.00
2023-03-01T15:53:08.214Z,100771.94
2023-03-01T15:58:14.738Z,100780.06
2023-03-01T16:03:22.753Z,100773.81
2023-03-01T16:08:25.056Z,100778.81
2023-03-01T16:13:29.079Z,100795.03
2023-03-01T16:18:31.605Z,100789.84
2023-03-01T16:23:34.265Z,100795.47
2023-03-01T16:28:36.437Z,100783.00
2023-03-01T16:33:39.298Z,100787.78
2023-03-01T16:38:41.545Z,100791.84
2023-03-01T16:43:44.210Z,100817.03
2023-03-01T16:48:48.387Z,100813.53
2023-03-01T16:53:52.193Z,100808.13
2023-03-01T16:58:54.892Z,100819.97
2023-03-01T17:03:57.083Z,100819.94
2023-03-01T17:09:00.381Z,100818.06
2023-03-01T17:14:02.563Z,100808.13
2023-03-01T17:19:04.729Z,100811.03
2023-03-01T17:24:07.128Z,100810.34
2023-03-01T17:29:09.429Z,100804.78
2023-03-01T17:34:11.591Z,100814.72
2023-03-01T17:39:13.979Z,100826.00
2023-03-01T17:44:16.177Z,100807.28
2023-03-01T17:49:18.670Z,100794.13
2023-03-01T17:54:20.947Z,100807.84
2023-03-01T17:59:23.187Z,100808.31
2023-03-01T18:04:25.456Z,100830.53
2023-03-01T18:09:28.687Z,100859.44
2023-03-01T18:14:34.303Z,100853.38
2023-03-01T18:19:36.465Z,100857.91
2023-03-01T18:24:39.577Z,100867.22
2023-03-01T18:29:41.749Z,100839.38
2023-03-01T18:34:43.877Z,100864.94
2023-03-01T18:39:46.230Z,100888.19
2023-03-01T18:44:49.381Z,100874.03
2023-03-01T18:49:51.625Z,100902.66
2023-03-01T18:54:53.821Z,100900.66
2023-03-01T18:59:56.005Z,100911.91
2023-03-01T19:04:58.279Z,100890.03
2023-03-01T19:10:00.552Z,100888.97
2023-03-01T19:15:02.856Z,100912.66
2023-03-01T19:20:06.085Z,100911.84
2023-03-01T19:25:08.796Z,100906.63
2023-03-01T19:30:11.689Z,100919.13
2023-03-01T19:35:13.954Z,100894.69
2023-03-01T19:40:16.282Z,100902.03
2023-03-01T19:45:25.219Z,100903.13
2023-03-01T19:50:34.177Z,100908.03
2023-03-01T19:55:38.082Z,100919.28
2023-03-01T20:00:46.042Z,100930.09
2023-03-01T20:05:48.510Z,100924.91
2023-03-01T20:10:51.261Z,100925.28
2023-03-01T20:15:55.782Z,100926.13
2023-03-01T20:20:59.572Z,100942.91
2023-03-01T20:26:05.004Z,100945.38
2023-03-01T20:31:10.089Z,100943.38
2023-03-01T20:36:12.839Z,100938.56
2023-03-01T20:41:15.145Z,100949.97
2023-03-01T20:46:17.287Z,100918.91
2023-03-01T20:51:20.205Z,100950.78
2023-03-01T20:56:23.275Z,100959.75
2023-03-01T21:01:25.915Z,100960.00
2023-03-01T21:06:28.482Z,100937.53
2023-03-01T21:11:30.795Z,100943.09
2023-03-01T21:16:34.265Z,100979.81
2023-03-01T21:21:37.345Z,101001.47
2023-03-01T21:26:39.834Z,101003.38
2023-03-01T21:31:42.058Z,101008.69
2023-03-01T21:36:44.158Z,101006.38
2023-03-01T21:41:46.621Z,100961.31
2023-03-01T21:46:50.092Z,100939.19
2023-03-01T21:51:52.636Z,100899.53
2023-03-01T21:56:54.856Z,100859.50
2023-03-01T22:01:56.985Z,100883.66
2023-03-01T22:06:59.172Z,100922.97
2023-03-01T22:12:04.340Z,100922.59
2023-03-01T22:17:06.819Z,100902.19
2023-03-01T22:22:09.180Z,100903.88
2023-03-01T22:27:11.341Z,100925.28
2023-03-01T22:32:13.616Z,100910.72
2023-03-01T22:37:15.934Z,100913.78
2023-03-01T22:42:19.085Z,100895.78
2023-03-01T22:47:21.243Z,100897.63
2023-03-01T22:52:23.833Z,100918.47
2023-03-01T22:57:25.917Z,100899.22
2023-03-01T23:02:28.844Z,100903.00
2023-03-01T23:07:31.225Z,100887.41
2023-03-01T23:12:33.423Z,100899.09
2023-03-01T23:17:36.014Z,100882.38
2023-03-01T23:22:38.617Z,100849.13
2023-03-01T23:27:40.894Z,100864.84
2023-03-01T23:32:43.100Z,100868.97
2023-03-01T23:37:45.976Z,100870.19
2023-03-01T23:42:48.077Z,100862.94
2023-03-01T23:47:50.184Z,100847.84
2023-03-01T23:52:52.323Z,100845.06
2023-03-01T23:57:54.594Z,100848.22
